sensor_id;sensor_type;location;lat;lon;timestamp;P1;durP1;ratioP1;P2;durP2;ratioP2
21270;SDS011;10795;50.796;3.860;2023-02-15T00:01:45;97.28;;;43.17;;
21270;SDS011;10795;50.796;3.860;2023-02-15T00:04:14;59.78;;;33.10;;
21270;SDS011;10795;50.796;3.860;2023-02-15T00:06:41;71.05;;;41.58;;
21270;SDS011;10795;50.796;3.860;2023-02-15T00:09:08;59.22;;;40.65;;
21270;SDS011;10795;50.796;3.860;2023-02-15T00:11:35;77.00;;;45.55;;
21270;SDS011;10795;50.796;3.860;2023-02-15T00:16:42;69.65;;;43.22;;
21270;SDS011;10795;50.796;3.860;2023-02-15T00:19:09;74.93;;;45.13;;
21270;SDS011;10795;50.796;3.860;2023-02-15T00:21:36;75.47;;;45.17;;
21270;SDS011;10795;50.796;3.860;2023-02-15T00:24:04;68.28;;;43.55;;
21270;SDS011;10795;50.796;3.860;2023-02-15T00:26:31;66.07;;;41.80;;
21270;SDS011;10795;50.796;3.860;2023-02-15T00:28:58;64.57;;;38.50;;
21270;SDS011;10795;50.796;3.860;2023-02-15T00:31:26;90.68;;;47.88;;
21270;SDS011;10795;50.796;3.860;2023-02-15T00:33:54;71.68;;;39.22;;
21270;SDS011;10795;50.796;3.860;2023-02-15T00:36:25;63.15;;;33.67;;
21270;SDS011;10795;50.796;3.860;2023-02-15T00:38:51;77.22;;;36.50;;
21270;SDS011;10795;50.796;3.860;2023-02-15T00:41:17;77.85;;;37.38;;
21270;SDS011;10795;50.796;3.860;2023-02-15T00:43:43;90.95;;;39.78;;
21270;SDS011;10795;50.796;3.860;2023-02-15T00:46:09;97.22;;;40.50;;
21270;SDS011;10795;50.796;3.860;2023-02-15T00:48:35;70.85;;;41.60;;
21270;SDS011;10795;50.796;3.860;2023-02-15T00:51:02;77.85;;;41.55;;
21270;SDS011;10795;50.796;3.860;2023-02-15T00:53:29;73.55;;;40.85;;
21270;SDS011;10795;50.796;3.860;2023-02-15T00:55:55;116.35;;;40.25;;
21270;SDS011;10795;50.796;3.860;2023-02-15T00:58:22;66.28;;;38.03;;
21270;SDS011;10795;50.796;3.860;2023-02-15T01:00:48;85.32;;;36.00;;
21270;SDS011;10795;50.796;3.860;2023-02-15T01:03:15;82.07;;;36.00;;
21270;SDS011;10795;50.796;3.860;2023-02-15T01:05:42;57.63;;;36.22;;
21270;SDS011;10795;50.796;3.860;2023-02-15T01:08:08;59.97;;;35.25;;
21270;SDS011;10795;50.796;3.860;2023-02-15T01:10:37;56.08;;;34.20;;
21270;SDS011;10795;50.796;3.860;2023-02-15T01:13:03;73.28;;;36.35;;
21270;SDS011;10795;50.796;3.860;2023-02-15T01:15:29;52.33;;;34.50;;
21270;SDS011;10795;50.796;3.860;2023-02-15T01:17:55;54.47;;;36.42;;
21270;SDS011;10795;50.796;3.860;2023-02-15T01:20:24;51.08;;;36.47;;
21270;SDS011;10795;50.796;3.860;2023-02-15T01:22:52;51.33;;;36.63;;
21270;SDS011;10795;50.796;3.860;2023-02-15T01:25:21;54.90;;;37.72;;
21270;SDS011;10795;50.796;3.860;2023-02-15T01:27:49;54.83;;;38.07;;
21270;SDS011;10795;50.796;3.860;2023-02-15T01:30:15;50.45;;;35.92;;
21270;SDS011;10795;50.796;3.860;2023-02-15T01:32:44;60.37;;;36.77;;
21270;SDS011;10795;50.796;3.860;2023-02-15T01:35:10;56.33;;;36.08;;
21270;SDS011;10795;50.796;3.860;2023-02-15T01:37:36;51.38;;;36.70;;
21270;SDS011;10795;50.796;3.860;2023-02-15T01:40:04;53.22;;;35.30;;
21270;SDS011;10795;50.796;3.860;2023-02-15T01:42:33;53.03;;;35.47;;
21270;SDS011;10795;50.796;3.860;2023-02-15T01:45:04;50.05;;;33.60;;
21270;SDS011;10795;50.796;3.860;2023-02-15T01:47:54;53.08;;;34.60;;
21270;SDS011;10795;50.796;3.860;2023-02-15T01:50:42;46.50;;;32.00;;
21270;SDS011;10795;50.796;3.860;2023-02-15T01:55:44;58.08;;;34.65;;
21270;SDS011;10795;50.796;3.860;2023-02-15T01:58:30;60.17;;;35.47;;
21270;SDS011;10795;50.796;3.860;2023-02-15T02:00:59;68.57;;;37.17;;
21270;SDS011;10795;50.796;3.860;2023-02-15T02:06:48;57.70;;;35.17;;
21270;SDS011;10795;50.796;3.860;2023-02-15T02:09:16;60.78;;;36.45;;
21270;SDS011;10795;50.796;3.860;2023-02-15T02:11:41;57.25;;;36.88;;
21270;SDS011;10795;50.796;3.860;2023-02-15T02:14:11;50.35;;;35.42;;
21270;SDS011;10795;50.796;3.860;2023-02-15T02:27:54;111.82;;;39.75;;
21270;SDS011;10795;50.796;3.860;2023-02-15T02:33:42;119.15;;;39.65;;
21270;SDS011;10795;50.796;3.860;2023-02-15T02:36:21;66.43;;;40.88;;
21270;SDS011;10795;50.796;3.860;2023-02-15T02:39:07;75.07;;;42.45;;
21270;SDS011;10795;50.796;3.860;2023-02-15T02:44:40;100.25;;;40.97;;
21270;SDS011;10795;50.796;3.860;2023-02-15T02:47:10;84.70;;;37.25;;
21270;SDS011;10795;50.796;3.860;2023-02-15T02:49:41;69.40;;;38.53;;
21270;SDS011;10795;50.796;3.860;2023-02-15T02:55:44;66.28;;;41.47;;
21270;SDS011;10795;50.796;3.860;2023-02-15T03:01:03;98.53;;;40.17;;
21270;SDS011;10795;50.796;3.860;2023-02-15T03:03:48;88.28;;;38.40;;
21270;SDS011;10795;50.796;3.860;2023-02-15T03:06:21;59.38;;;38.20;;
21270;SDS011;10795;50.796;3.860;2023-02-15T03:09:03;54.63;;;36.08;;
21270;SDS011;10795;50.796;3.860;2023-02-15T03:11:43;73.65;;;37.53;;
21270;SDS011;10795;50.796;3.860;2023-02-15T03:14:10;62.72;;;35.90;;
21270;SDS011;10795;50.796;3.860;2023-02-15T03:16:40;77.03;;;36.33;;
21270;SDS011;10795;50.796;3.860;2023-02-15T03:19:22;71.97;;;36.25;;
21270;SDS011;10795;50.796;3.860;2023-02-15T03:21:54;60.50;;;35.40;;
21270;SDS011;10795;50.796;3.860;2023-02-15T03:24:39;58.58;;;35.75;;
21270;SDS011;10795;50.796;3.860;2023-02-15T03:27:17;62.35;;;36.40;;
21270;SDS011;10795;50.796;3.860;2023-02-15T03:29:51;63.42;;;35.97;;
21270;SDS011;10795;50.796;3.860;2023-02-15T03:32:23;58.30;;;35.55;;
21270;SDS011;10795;50.796;3.860;2023-02-15T03:34:51;55.53;;;34.95;;
21270;SDS011;10795;50.796;3.860;2023-02-15T03:37:25;62.13;;;33.75;;
21270;SDS011;10795;50.796;3.860;2023-02-15T03:42:52;61.28;;;33.25;;
21270;SDS011;10795;50.796;3.860;2023-02-15T03:45:27;58.17;;;33.00;;
21270;SDS011;10795;50.796;3.860;2023-02-15T03:47:56;59.85;;;32.65;;
21270;SDS011;10795;50.796;3.860;2023-02-15T03:50:26;49.40;;;32.20;;
21270;SDS011;10795;50.796;3.860;2023-02-15T03:53:14;55.22;;;33.42;;
21270;SDS011;10795;50.796;3.860;2023-02-15T03:55:49;55.28;;;34.63;;
21270;SDS011;10795;50.796;3.860;2023-02-15T03:58:19;52.88;;;33.70;;
21270;SDS011;10795;50.796;3.860;2023-02-15T04:01:05;68.20;;;34.17;;
21270;SDS011;10795;50.796;3.860;2023-02-15T04:07:02;56.10;;;35.72;;
21270;SDS011;10795;50.796;3.860;2023-02-15T04:09:29;55.08;;;35.67;;
21270;SDS011;10795;50.796;3.860;2023-02-15T04:12:14;59.80;;;34.00;;
21270;SDS011;10795;50.796;3.860;2023-02-15T04:14:42;48.80;;;34.38;;
21270;SDS011;10795;50.796;3.860;2023-02-15T04:17:27;53.67;;;35.17;;
21270;SDS011;10795;50.796;3.860;2023-02-15T04:19:53;48.40;;;33.42;;
21270;SDS011;10795;50.796;3.860;2023-02-15T04:22:37;50.38;;;33.58;;
21270;SDS011;10795;50.796;3.860;2023-02-15T04:25:21;46.80;;;31.63;;
21270;SDS011;10795;50.796;3.860;2023-02-15T04:27:51;53.08;;;33.83;;
21270;SDS011;10795;50.796;3.860;2023-02-15T04:30:19;50.90;;;35.10;;
21270;SDS011;10795;50.796;3.860;2023-02-15T04:32:47;52.13;;;34.83;;
21270;SDS011;10795;50.796;3.860;2023-02-15T04:35:13;51.15;;;35.03;;
21270;SDS011;10795;50.796;3.860;2023-02-15T04:37:40;53.38;;;34.95;;
21270;SDS011;10795;50.796;3.860;2023-02-15T04:40:07;51.25;;;34.65;;
21270;SDS011;10795;50.796;3.860;2023-02-15T04:42:34;51.95;;;34.38;;
21270;SDS011;10795;50.796;3.860;2023-02-15T04:45:00;49.83;;;33.92;;
21270;SDS011;10795;50.796;3.860;2023-02-15T04:47:26;49.70;;;34.17;;
21270;SDS011;10795;50.796;3.860;2023-02-15T04:49:52;47.88;;;33.67;;
21270;SDS011;10795;50.796;3.860;2023-02-15T04:52:18;45.85;;;33.50;;
21270;SDS011;10795;50.796;3.860;2023-02-15T04:54:44;51.25;;;35.35;;
21270;SDS011;10795;50.796;3.860;2023-02-15T04:57:11;50.80;;;35.28;;
21270;SDS011;10795;50.796;3.860;2023-02-15T04:59:37;55.78;;;35.28;;
21270;SDS011;10795;50.796;3.860;2023-02-15T05:02:03;63.92;;;38.08;;
21270;SDS011;10795;50.796;3.860;2023-02-15T05:04:29;56.25;;;35.90;;
21270;SDS011;10795;50.796;3.860;2023-02-15T05:06:55;51.17;;;35.22;;
21270;SDS011;10795;50.796;3.860;2023-02-15T05:09:21;49.47;;;34.42;;
21270;SDS011;10795;50.796;3.860;2023-02-15T05:11:48;47.97;;;33.47;;
21270;SDS011;10795;50.796;3.860;2023-02-15T05:14:14;49.22;;;33.78;;
21270;SDS011;10795;50.796;3.860;2023-02-15T05:16:42;51.40;;;34.38;;
21270;SDS011;10795;50.796;3.860;2023-02-15T05:19:08;51.08;;;35.53;;
21270;SDS011;10795;50.796;3.860;2023-02-15T05:21:34;53.00;;;34.72;;
21270;SDS011;10795;50.796;3.860;2023-02-15T05:24:00;51.78;;;35.17;;
21270;SDS011;10795;50.796;3.860;2023-02-15T05:26:46;50.50;;;33.60;;
21270;SDS011;10795;50.796;3.860;2023-02-15T05:29:30;51.38;;;33.85;;
21270;SDS011;10795;50.796;3.860;2023-02-15T05:31:56;47.67;;;33.20;;
21270;SDS011;10795;50.796;3.860;2023-02-15T05:34:22;47.15;;;32.78;;
21270;SDS011;10795;50.796;3.860;2023-02-15T05:36:51;44.95;;;32.92;;
21270;SDS011;10795;50.796;3.860;2023-02-15T05:42:36;42.90;;;30.02;;
21270;SDS011;10795;50.796;3.860;2023-02-15T05:45:02;44.03;;;31.27;;
21270;SDS011;10795;50.796;3.860;2023-02-15T05:47:29;41.17;;;30.20;;
21270;SDS011;10795;50.796;3.860;2023-02-15T05:49:55;43.88;;;31.45;;
21270;SDS011;10795;50.796;3.860;2023-02-15T05:52:20;42.65;;;30.20;;
21270;SDS011;10795;50.796;3.860;2023-02-15T05:54:46;37.97;;;29.17;;
21270;SDS011;10795;50.796;3.860;2023-02-15T05:57:12;42.47;;;30.10;;
21270;SDS011;10795;50.796;3.860;2023-02-15T05:59:38;41.95;;;28.17;;
21270;SDS011;10795;50.796;3.860;2023-02-15T06:02:04;44.20;;;27.13;;
21270;SDS011;10795;50.796;3.860;2023-02-15T06:04:31;48.20;;;29.77;;
21270;SDS011;10795;50.796;3.860;2023-02-15T06:06:57;44.33;;;29.55;;
21270;SDS011;10795;50.796;3.860;2023-02-15T06:09:23;46.95;;;31.17;;
21270;SDS011;10795;50.796;3.860;2023-02-15T06:11:49;58.28;;;33.55;;
21270;SDS011;10795;50.796;3.860;2023-02-15T06:14:15;52.92;;;33.20;;
21270;SDS011;10795;50.796;3.860;2023-02-15T06:16:41;55.28;;;31.83;;
21270;SDS011;10795;50.796;3.860;2023-02-15T06:19:07;67.32;;;34.72;;
21270;SDS011;10795;50.796;3.860;2023-02-15T06:21:33;63.63;;;35.78;;
21270;SDS011;10795;50.796;3.860;2023-02-15T06:23:58;71.32;;;35.50;;
21270;SDS011;10795;50.796;3.860;2023-02-15T06:26:24;61.05;;;34.08;;
21270;SDS011;10795;50.796;3.860;2023-02-15T06:28:50;56.30;;;33.90;;
21270;SDS011;10795;50.796;3.860;2023-02-15T06:31:16;62.53;;;34.92;;
21270;SDS011;10795;50.796;3.860;2023-02-15T06:33:42;71.40;;;36.67;;
21270;SDS011;10795;50.796;3.860;2023-02-15T06:36:08;77.00;;;37.22;;
21270;SDS011;10795;50.796;3.860;2023-02-15T06:38:34;80.97;;;38.03;;
21270;SDS011;10795;50.796;3.860;2023-02-15T06:41:00;89.35;;;40.78;;
21270;SDS011;10795;50.796;3.860;2023-02-15T06:43:26;82.82;;;40.60;;
21270;SDS011;10795;50.796;3.860;2023-02-15T06:45:52;77.88;;;40.42;;
21270;SDS011;10795;50.796;3.860;2023-02-15T06:48:18;85.90;;;39.20;;
21270;SDS011;10795;50.796;3.860;2023-02-15T06:50:44;79.57;;;40.58;;
21270;SDS011;10795;50.796;3.860;2023-02-15T06:53:10;88.13;;;41.30;;
21270;SDS011;10795;50.796;3.860;2023-02-15T06:55:36;91.55;;;42.72;;
21270;SDS011;10795;50.796;3.860;2023-02-15T06:58:01;81.38;;;41.53;;
21270;SDS011;10795;50.796;3.860;2023-02-15T07:00:27;81.88;;;43.28;;
21270;SDS011;10795;50.796;3.860;2023-02-15T07:02:54;77.85;;;39.97;;
21270;SDS011;10795;50.796;3.860;2023-02-15T07:05:21;76.10;;;39.15;;
21270;SDS011;10795;50.796;3.860;2023-02-15T07:07:48;79.43;;;40.00;;
21270;SDS011;10795;50.796;3.860;2023-02-15T07:10:14;73.45;;;37.88;;
21270;SDS011;10795;50.796;3.860;2023-02-15T07:12:40;78.82;;;40.30;;
21270;SDS011;10795;50.796;3.860;2023-02-15T07:15:14;46.15;;;26.05;;
21270;SDS011;10795;50.796;3.860;2023-02-15T07:17:42;58.47;;;34.55;;
21270;SDS011;10795;50.796;3.860;2023-02-15T07:20:10;66.93;;;36.63;;
21270;SDS011;10795;50.796;3.860;2023-02-15T07:22:46;63.20;;;33.95;;
21270;SDS011;10795;50.796;3.860;2023-02-15T07:25:13;59.45;;;34.38;;
21270;SDS011;10795;50.796;3.860;2023-02-15T07:27:40;64.97;;;34.88;;
21270;SDS011;10795;50.796;3.860;2023-02-15T07:30:06;63.28;;;35.15;;
21270;SDS011;10795;50.796;3.860;2023-02-15T07:32:34;60.25;;;34.05;;
21270;SDS011;10795;50.796;3.860;2023-02-15T07:35:00;55.95;;;32.83;;
21270;SDS011;10795;50.796;3.860;2023-02-15T07:37:29;62.10;;;35.80;;
21270;SDS011;10795;50.796;3.860;2023-02-15T07:39:55;62.40;;;36.88;;
21270;SDS011;10795;50.796;3.860;2023-02-15T07:42:20;66.95;;;37.45;;
21270;SDS011;10795;50.796;3.860;2023-02-15T07:44:47;62.55;;;35.40;;
21270;SDS011;10795;50.796;3.860;2023-02-15T07:47:13;56.13;;;32.70;;
21270;SDS011;10795;50.796;3.860;2023-02-15T07:49:39;68.82;;;37.05;;
21270;SDS011;10795;50.796;3.860;2023-02-15T07:52:04;58.47;;;34.20;;
21270;SDS011;10795;50.796;3.860;2023-02-15T07:54:30;60.63;;;36.67;;
21270;SDS011;10795;50.796;3.860;2023-02-15T07:56:56;63.22;;;37.25;;
21270;SDS011;10795;50.796;3.860;2023-02-15T07:59:22;56.78;;;33.78;;
21270;SDS011;10795;50.796;3.860;2023-02-15T08:01:49;63.17;;;35.17;;
21270;SDS011;10795;50.796;3.860;2023-02-15T08:04:15;24.58;;;17.17;;
21270;SDS011;10795;50.796;3.860;2023-02-15T08:06:43;65.05;;;35.55;;
21270;SDS011;10795;50.796;3.860;2023-02-15T08:09:11;35.80;;;21.70;;
21270;SDS011;10795;50.796;3.860;2023-02-15T08:11:37;67.03;;;35.95;;
21270;SDS011;10795;50.796;3.860;2023-02-15T08:16:51;64.95;;;35.17;;
21270;SDS011;10795;50.796;3.860;2023-02-15T08:19:24;68.55;;;36.22;;
21270;SDS011;10795;50.796;3.860;2023-02-15T08:21:55;60.97;;;34.28;;
21270;SDS011;10795;50.796;3.860;2023-02-15T08:24:23;54.35;;;32.38;;
21270;SDS011;10795;50.796;3.860;2023-02-15T08:26:53;46.05;;;27.42;;
21270;SDS011;10795;50.796;3.860;2023-02-15T08:29:20;42.28;;;26.15;;
21270;SDS011;10795;50.796;3.860;2023-02-15T08:31:48;43.38;;;25.48;;
21270;SDS011;10795;50.796;3.860;2023-02-15T08:34:16;38.25;;;24.17;;
21270;SDS011;10795;50.796;3.860;2023-02-15T08:36:43;39.08;;;24.35;;
21270;SDS011;10795;50.796;3.860;2023-02-15T08:39:13;65.90;;;33.27;;
21270;SDS011;10795;50.796;3.860;2023-02-15T08:41:42;63.63;;;34.97;;
21270;SDS011;10795;50.796;3.860;2023-02-15T08:44:09;57.65;;;34.97;;
21270;SDS011;10795;50.796;3.860;2023-02-15T08:46:37;57.83;;;33.72;;
21270;SDS011;10795;50.796;3.860;2023-02-15T08:49:04;40.90;;;24.85;;
21270;SDS011;10795;50.796;3.860;2023-02-15T08:51:31;39.85;;;23.17;;
21270;SDS011;10795;50.796;3.860;2023-02-15T08:54:00;53.53;;;30.55;;
21270;SDS011;10795;50.796;3.860;2023-02-15T08:56:29;49.53;;;29.13;;
21270;SDS011;10795;50.796;3.860;2023-02-15T08:58:58;56.30;;;33.65;;
21270;SDS011;10795;50.796;3.860;2023-02-15T09:01:25;46.10;;;27.52;;
21270;SDS011;10795;50.796;3.860;2023-02-15T09:03:56;56.15;;;32.55;;
21270;SDS011;10795;50.796;3.860;2023-02-15T09:06:23;53.22;;;31.60;;
21270;SDS011;10795;50.796;3.860;2023-02-15T09:08:50;55.15;;;31.88;;
21270;SDS011;10795;50.796;3.860;2023-02-15T09:11:23;55.35;;;31.23;;
21270;SDS011;10795;50.796;3.860;2023-02-15T09:13:57;40.65;;;25.65;;
21270;SDS011;10795;50.796;3.860;2023-02-15T09:16:26;55.25;;;33.15;;
21270;SDS011;10795;50.796;3.860;2023-02-15T09:18:54;57.78;;;31.20;;
21270;SDS011;10795;50.796;3.860;2023-02-15T09:21:23;55.75;;;29.30;;
21270;SDS011;10795;50.796;3.860;2023-02-15T09:23:50;55.70;;;31.83;;
21270;SDS011;10795;50.796;3.860;2023-02-15T09:26:19;39.17;;;23.85;;
21270;SDS011;10795;50.796;3.860;2023-02-15T09:28:47;52.95;;;31.27;;
21270;SDS011;10795;50.796;3.860;2023-02-15T09:31:19;62.17;;;34.28;;
21270;SDS011;10795;50.796;3.860;2023-02-15T09:33:47;51.13;;;28.53;;
21270;SDS011;10795;50.796;3.860;2023-02-15T09:36:17;41.28;;;23.98;;
21270;SDS011;10795;50.796;3.860;2023-02-15T09:39:09;47.90;;;28.40;;
21270;SDS011;10795;50.796;3.860;2023-02-15T09:50:03;50.03;;;30.40;;
21270;SDS011;10795;50.796;3.860;2023-02-15T09:55:51;45.65;;;26.58;;
21270;SDS011;10795;50.796;3.860;2023-02-15T10:04:19;44.53;;;25.98;;
21270;SDS011;10795;50.796;3.860;2023-02-15T10:26:17;52.95;;;30.58;;
21270;SDS011;10795;50.796;3.860;2023-02-15T10:34:02;54.30;;;33.22;;
21270;SDS011;10795;50.796;3.860;2023-02-15T10:44:57;45.03;;;26.50;;
21270;SDS011;10795;50.796;3.860;2023-02-15T10:50:24;43.90;;;25.30;;
21270;SDS011;10795;50.796;3.860;2023-02-15T10:53:06;48.75;;;27.65;;
21270;SDS011;10795;50.796;3.860;2023-02-15T11:06:48;40.30;;;25.00;;
21270;SDS011;10795;50.796;3.860;2023-02-15T11:09:18;44.97;;;29.48;;
21270;SDS011;10795;50.796;3.860;2023-02-15T11:11:48;39.83;;;24.08;;
21270;SDS011;10795;50.796;3.860;2023-02-15T11:16:59;41.83;;;25.67;;
21270;SDS011;10795;50.796;3.860;2023-02-15T11:19:34;38.00;;;23.23;;
21270;SDS011;10795;50.796;3.860;2023-02-15T11:22:05;43.95;;;26.38;;
21270;SDS011;10795;50.796;3.860;2023-02-15T11:24:33;40.58;;;24.10;;
21270;SDS011;10795;50.796;3.860;2023-02-15T11:29:59;38.65;;;23.10;;
21270;SDS011;10795;50.796;3.860;2023-02-15T11:32:41;34.15;;;19.90;;
21270;SDS011;10795;50.796;3.860;2023-02-15T11:37:40;35.08;;;21.98;;
21270;SDS011;10795;50.796;3.860;2023-02-15T11:40:29;42.45;;;24.83;;
21270;SDS011;10795;50.796;3.860;2023-02-15T11:43:00;38.05;;;23.55;;
21270;SDS011;10795;50.796;3.860;2023-02-15T11:45:32;39.50;;;23.60;;
21270;SDS011;10795;50.796;3.860;2023-02-15T11:47:59;47.85;;;27.70;;
21270;SDS011;10795;50.796;3.860;2023-02-15T11:50:30;45.45;;;25.65;;
21270;SDS011;10795;50.796;3.860;2023-02-15T11:52:59;46.55;;;27.88;;
21270;SDS011;10795;50.796;3.860;2023-02-15T11:55:29;47.25;;;28.08;;
21270;SDS011;10795;50.796;3.860;2023-02-15T12:00:36;46.80;;;27.08;;
21270;SDS011;10795;50.796;3.860;2023-02-15T12:03:22;44.40;;;26.23;;
21270;SDS011;10795;50.796;3.860;2023-02-15T12:05:58;41.85;;;25.83;;
21270;SDS011;10795;50.796;3.860;2023-02-15T12:08:30;48.35;;;29.20;;
21270;SDS011;10795;50.796;3.860;2023-02-15T12:11:09;47.97;;;28.50;;
21270;SDS011;10795;50.796;3.860;2023-02-15T12:13:57;44.55;;;27.05;;
21270;SDS011;10795;50.796;3.860;2023-02-15T12:16:28;49.20;;;28.92;;
21270;SDS011;10795;50.796;3.860;2023-02-15T12:18:58;34.90;;;21.58;;
21270;SDS011;10795;50.796;3.860;2023-02-15T12:21:27;34.67;;;21.23;;
21270;SDS011;10795;50.796;3.860;2023-02-15T12:23:56;40.35;;;27.38;;
21270;SDS011;10795;50.796;3.860;2023-02-15T12:26:33;45.50;;;26.27;;
21270;SDS011;10795;50.796;3.860;2023-02-15T12:29:01;40.10;;;24.15;;
21270;SDS011;10795;50.796;3.860;2023-02-15T12:31:42;45.70;;;28.48;;
21270;SDS011;10795;50.796;3.860;2023-02-15T12:34:21;40.20;;;24.40;;
21270;SDS011;10795;50.796;3.860;2023-02-15T12:36:53;47.22;;;28.83;;
21270;SDS011;10795;50.796;3.860;2023-02-15T12:39:26;49.25;;;29.70;;
21270;SDS011;10795;50.796;3.860;2023-02-15T12:44:21;49.60;;;27.90;;
21270;SDS011;10795;50.796;3.860;2023-02-15T12:49:26;47.83;;;29.80;;
21270;SDS011;10795;50.796;3.860;2023-02-15T12:52:10;43.38;;;27.38;;
21270;SDS011;10795;50.796;3.860;2023-02-15T12:54:49;43.92;;;27.52;;
21270;SDS011;10795;50.796;3.860;2023-02-15T12:59:48;49.67;;;30.10;;
21270;SDS011;10795;50.796;3.860;2023-02-15T13:02:20;44.22;;;27.83;;
21270;SDS011;10795;50.796;3.860;2023-02-15T13:04:55;47.17;;;29.60;;
21270;SDS011;10795;50.796;3.860;2023-02-15T13:07:29;47.10;;;28.20;;
21270;SDS011;10795;50.796;3.860;2023-02-15T13:09:56;39.05;;;24.33;;
21270;SDS011;10795;50.796;3.860;2023-02-15T13:12:23;47.65;;;29.45;;
21270;SDS011;10795;50.796;3.860;2023-02-15T13:14:55;41.17;;;25.77;;
21270;SDS011;10795;50.796;3.860;2023-02-15T13:17:26;40.45;;;25.02;;
21270;SDS011;10795;50.796;3.860;2023-02-15T13:19:55;48.30;;;29.38;;
21270;SDS011;10795;50.796;3.860;2023-02-15T13:22:28;48.47;;;29.25;;
21270;SDS011;10795;50.796;3.860;2023-02-15T13:25:04;46.70;;;28.40;;
21270;SDS011;10795;50.796;3.860;2023-02-15T13:27:41;49.15;;;29.95;;
21270;SDS011;10795;50.796;3.860;2023-02-15T13:30:25;46.15;;;29.48;;
21270;SDS011;10795;50.796;3.860;2023-02-15T13:32:58;48.58;;;28.65;;
21270;SDS011;10795;50.796;3.860;2023-02-15T13:35:29;44.70;;;27.80;;
21270;SDS011;10795;50.796;3.860;2023-02-15T13:38:10;43.80;;;28.27;;
21270;SDS011;10795;50.796;3.860;2023-02-15T13:40:59;44.88;;;28.60;;
21270;SDS011;10795;50.796;3.860;2023-02-15T13:51:53;35.58;;;24.13;;
21270;SDS011;10795;50.796;3.860;2023-02-15T14:00:12;47.95;;;30.58;;
21270;SDS011;10795;50.796;3.860;2023-02-15T14:05:40;45.30;;;29.40;;
21270;SDS011;10795;50.796;3.860;2023-02-15T14:11:18;29.45;;;19.60;;
21270;SDS011;10795;50.796;3.860;2023-02-15T14:14:05;41.65;;;25.65;;
21270;SDS011;10795;50.796;3.860;2023-02-15T14:19:57;40.33;;;25.13;;
21270;SDS011;10795;50.796;3.860;2023-02-15T14:22:31;52.22;;;30.92;;
21270;SDS011;10795;50.796;3.860;2023-02-15T14:27:46;45.05;;;29.17;;
21270;SDS011;10795;50.796;3.860;2023-02-15T14:30:19;48.42;;;30.45;;
21270;SDS011;10795;50.796;3.860;2023-02-15T14:32:53;47.20;;;29.58;;
21270;SDS011;10795;50.796;3.860;2023-02-15T14:35:21;47.28;;;27.45;;
21270;SDS011;10795;50.796;3.860;2023-02-15T14:38:03;43.65;;;26.77;;
21270;SDS011;10795;50.796;3.860;2023-02-15T14:40:52;47.58;;;28.77;;
21270;SDS011;10795;50.796;3.860;2023-02-15T14:49:12;36.25;;;23.42;;
21270;SDS011;10795;50.796;3.860;2023-02-15T14:56:43;41.10;;;27.05;;
21270;SDS011;10795;50.796;3.860;2023-02-15T14:59:13;41.90;;;25.13;;
21270;SDS011;10795;50.796;3.860;2023-02-15T15:01:41;45.70;;;28.65;;
21270;SDS011;10795;50.796;3.860;2023-02-15T15:12:43;44.30;;;28.92;;
21270;SDS011;10795;50.796;3.860;2023-02-15T15:15:12;30.65;;;19.75;;
21270;SDS011;10795;50.796;3.860;2023-02-15T15:20:49;44.20;;;27.98;;
21270;SDS011;10795;50.796;3.860;2023-02-15T15:28:07;23.27;;;16.48;;
21270;SDS011;10795;50.796;3.860;2023-02-15T15:38:55;35.53;;;23.65;;
21270;SDS011;10795;50.796;3.860;2023-02-15T15:50:00;42.47;;;26.83;;
21270;SDS011;10795;50.796;3.860;2023-02-15T15:52:26;47.10;;;28.63;;
21270;SDS011;10795;50.796;3.860;2023-02-15T15:54:57;31.73;;;20.02;;
21270;SDS011;10795;50.796;3.860;2023-02-15T15:57:30;48.67;;;30.30;;
21270;SDS011;10795;50.796;3.860;2023-02-15T15:59:59;45.10;;;29.58;;
21270;SDS011;10795;50.796;3.860;2023-02-15T16:02:25;48.63;;;30.25;;
21270;SDS011;10795;50.796;3.860;2023-02-15T16:04:51;43.72;;;27.67;;
21270;SDS011;10795;50.796;3.860;2023-02-15T16:10:00;46.67;;;30.17;;
21270;SDS011;10795;50.796;3.860;2023-02-15T16:12:30;52.67;;;31.52;;
21270;SDS011;10795;50.796;3.860;2023-02-15T16:15:02;50.83;;;31.08;;
21270;SDS011;10795;50.796;3.860;2023-02-15T16:17:38;49.65;;;30.48;;
21270;SDS011;10795;50.796;3.860;2023-02-15T16:22:59;47.38;;;29.17;;
21270;SDS011;10795;50.796;3.860;2023-02-15T16:28:14;48.67;;;29.33;;
21270;SDS011;10795;50.796;3.860;2023-02-15T16:30:43;53.92;;;32.05;;
21270;SDS011;10795;50.796;3.860;2023-02-15T16:33:13;55.20;;;32.92;;
21270;SDS011;10795;50.796;3.860;2023-02-15T16:36:02;53.65;;;33.65;;
21270;SDS011;10795;50.796;3.860;2023-02-15T16:41:08;51.13;;;33.15;;
21270;SDS011;10795;50.796;3.860;2023-02-15T16:43:43;53.35;;;32.40;;
21270;SDS011;10795;50.796;3.860;2023-02-15T16:46:14;54.60;;;32.83;;
21270;SDS011;10795;50.796;3.860;2023-02-15T16:48:52;59.17;;;33.33;;
21270;SDS011;10795;50.796;3.860;2023-02-15T16:51:21;57.83;;;33.50;;
21270;SDS011;10795;50.796;3.860;2023-02-15T16:53:55;58.35;;;33.03;;
21270;SDS011;10795;50.796;3.860;2023-02-15T16:56:26;57.85;;;33.58;;
21270;SDS011;10795;50.796;3.860;2023-02-15T16:58:58;58.58;;;33.47;;
21270;SDS011;10795;50.796;3.860;2023-02-15T17:01:26;67.93;;;35.65;;
21270;SDS011;10795;50.796;3.860;2023-02-15T17:07:03;53.33;;;31.20;;
21270;SDS011;10795;50.796;3.860;2023-02-15T17:09:31;60.75;;;35.20;;
21270;SDS011;10795;50.796;3.860;2023-02-15T17:11:57;64.70;;;32.08;;
21270;SDS011;10795;50.796;3.860;2023-02-15T17:14:31;56.63;;;31.98;;
21270;SDS011;10795;50.796;3.860;2023-02-15T17:19:33;58.13;;;34.47;;
21270;SDS011;10795;50.796;3.860;2023-02-15T17:22:16;65.85;;;37.47;;
21270;SDS011;10795;50.796;3.860;2023-02-15T17:24:45;62.90;;;36.22;;
21270;SDS011;10795;50.796;3.860;2023-02-15T17:27:26;65.15;;;36.80;;
21270;SDS011;10795;50.796;3.860;2023-02-15T17:29:57;60.70;;;35.90;;
21270;SDS011;10795;50.796;3.860;2023-02-15T17:32:34;60.17;;;34.55;;
21270;SDS011;10795;50.796;3.860;2023-02-15T17:42:50;63.55;;;36.20;;
21270;SDS011;10795;50.796;3.860;2023-02-15T17:45:18;61.78;;;36.92;;
21270;SDS011;10795;50.796;3.860;2023-02-15T17:47:46;56.42;;;33.92;;
21270;SDS011;10795;50.796;3.860;2023-02-15T17:50:24;62.53;;;36.95;;
21270;SDS011;10795;50.796;3.860;2023-02-15T17:52:51;65.30;;;37.10;;
21270;SDS011;10795;50.796;3.860;2023-02-15T17:55:20;60.42;;;35.47;;
21270;SDS011;10795;50.796;3.860;2023-02-15T17:58:11;64.53;;;37.00;;
21270;SDS011;10795;50.796;3.860;2023-02-15T18:00:42;66.00;;;37.45;;
21270;SDS011;10795;50.796;3.860;2023-02-15T18:03:38;63.38;;;38.00;;
21270;SDS011;10795;50.796;3.860;2023-02-15T18:06:25;65.90;;;39.60;;
21270;SDS011;10795;50.796;3.860;2023-02-15T18:09:10;67.25;;;39.08;;
21270;SDS011;10795;50.796;3.860;2023-02-15T18:11:58;65.37;;;37.87;;
21270;SDS011;10795;50.796;3.860;2023-02-15T18:14:25;64.68;;;38.53;;
21270;SDS011;10795;50.796;3.860;2023-02-15T18:16:51;64.82;;;38.50;;
21270;SDS011;10795;50.796;3.860;2023-02-15T18:19:21;61.80;;;36.35;;
21270;SDS011;10795;50.796;3.860;2023-02-15T18:21:50;65.13;;;38.20;;
21270;SDS011;10795;50.796;3.860;2023-02-15T18:24:22;65.50;;;38.55;;